Curtis, MI

9:10 AM EDT on July 29, 2015 (GMT -0400)
MesoWest | | Change Station
CLOSE
Current Station
Personal Weather Station
Location: Gulliver, MI
Elevation: 711 ft
Nearby Weather Stations

Elev 711 ft 46.10 °N, 85.93 °W | Updated 40 minutes ago

Mostly Cloudy
Mostly Cloudy
73 °F
Feels Like 71 °F
N
4
Wind Variable Wind from SW
Gusts 12.0 mph

Today
High -- | Low -- °F
--% Chance of Precip.
Yesterday
High -- | Low -- °F
Precip. -- in
6:21 AM 9:17 PM
Waxing Gibbous, 95% visible
Pressure 29.81 in
Visibility 7.0 miles
Clouds Scattered Clouds 300 ft
Scattered Clouds 1400 ft
Overcast 4500 ft
Heat Index 71 °F
Dew Point 69 °F
Humidity 89%
Rainfall in
Snow Depth Not available.
UV 1 out of 12
Pollen 5.60 out of 12
Air Quality Not available.
Flu Activity Not available.
METAR KISQ 291300Z AUTO 21006KT 7SM SCT003 SCT014 OVC045 22/20 A2981 RMK AO2

More Conditions Fewer Conditions

Pressure 29.81 in
Visibility 7.0 miles
Clouds Scattered Clouds 300 ft
Scattered Clouds 1400 ft
Overcast 4500 ft
Heat Index 71 °F
Dew Point 69 °F
Humidity 89%
Rainfall in
Snow Depth Not available.
UV 1 out of 12
Pollen 5.60 out of 12
Air Quality Not available.
Flu Activity Not available.
METAR KISQ 291300Z AUTO 21006KT 7SM SCT003 SCT014 OVC045 22/20 A2981 RMK AO2

More Conditions Fewer Conditions

Nowcast | as of 8:00 am EDT on July 29, 2015

At 9 am...mostly cloudy. Slight chance of showers. Temperature 74. Southwest winds 11 mph. At 11 am...mostly cloudy. Slight chance of showers and isolated thunderstorms. Temperature 76. Southwest winds 13 mph. At 1 PM...partly cloudy. Slight chance of showers and isolated thunderstorms. Temperature 75. Southwest winds 14 mph. At 3 PM...partly cloudy. Temperature 75. Southwest winds 15 mph.

×

10-Day Weather Forecast

×

Almanac

Astronomy

Jul. 29, 2015 Rise Set
Actual Time
Civil Twilight
Nautical Twilight
Astronomical Twilight
Moon
Length of Visible Light
Length of Day
Tomorrow will be .
, % of the Moon is Illuminated

Today's Extremes

State Highs State Lows

Community

WunderPhotos

Upload Photos

1,842,092 photos uploaded!

WunderBlogs® & News

Nearby

Air Quality

  Air Quality AQ Index Pollutant
Not available.

Snow Depth

Station Depth Elevation

Earthquake Activity

City Distance Mag. Time & Date
Minimum magnitude displayed is 2.5.

Coastal Water Temperatures

Place Temperature

Stations

Nearby Weather Stations

Station Location Temp. Windchill Dew Point Humidity Wind Precip. Elev Updated Type